Current Conditions

Updated: 17-Oct-2017 5:22 PM  
Summary / Temperature Wind Rain






Feels like: 78°F

1-hour difference
4.9°F 4.9°F colder than last hour.

24-hour difference
1.4°F1.4°F colder than yesterday at this time.

  Today Yesterday
High: 84.1°F
3:18 PM
83.0°F
3:21 PM
Low: 49.3°F
3:08 AM
46.2°F
7:12 AM
Calm NW
0.0
Gust:  0.0 mph
0 Beaufort - Calm

Today: 4.0 - 12:44 PM
Month: 10.4 mph - Oct 2
Rain Today: 0.00 in
Current Rate (/hr): 0.000 in
Max Rate (/hr):
Rain Yesterday: 0.00 in
Storm Rain: 0.00 in
This Month: 0.00 in
Season Total: 0.00 in
Last Rain Event: 25 days ago
Humidity / Barometer Sun / Moon
Humidity: 36 Increased 8.0% in the last hour.
Dew Point: 49.0°F Increased 2.5°F in the last hour.
Barometer: 29.976 inHg  
Baro Trend: Steady
Sunrise: 7:06 AM
Sunset: 6:17 PM
Moonrise: 5:52 AM
Moonset: 5:28 PM
Sky Conditions UV Index
Summary: Haze, Clear
Visibility: 6 miles
Clouds: None
KVIS - 4:56 PM PDT
Current: 1.0  Low 
Tuesday: 5.1  Moderate 
Wednesday: 4.8  Moderate 
Air Quality Fire Danger
 Unhealthy for Sensitive Groups 
Ozone 81 ppb
PM 2.5 29 μg/m3
5:20 PM PDT
Current: 44  Low 

Local Alerts Local Forecast
Local NWS Alerts
Tonight

Isolated
T'Storms
Low 52
Wed

Mostly
Sunny
High 84
Wed night

Clear

Low 49
Thu

Mostly
Sunny
High 78
Thu night

Rain
Showers
Low 48
Fri

Rain
Showers
High 69
Fri night

Mostly
Clear
Low 45

Local Radar Local Satellite Neighborhood Cam Sky Cam
Local Radar Local Satellite Neighborhood Cam Sky Cam


Nearby Personal Stations

Weather Underground PWS KCAEXETE7     Weather Underground PWS KCAEXETE6     Weather Underground PWS KCAEXETE11

Nearby Airport Stations

KVIS - Visalia, California, USA
Distance from station: W 14mi, 23km
Updated: Tue, 17-Oct-2017 4:56pm PDT
Haze, Clear
Haze, Clear
 Wind from NW
Wind: NW 9 mph , 15 km/h
Temperature: 81°F , 27°C
Dew Point: 46°F , 8°C
Humidity: 30%
Barometer: 30.01 inHg , 1016.3 hPa
Summary: Haze
Clouds: Clear
Visibility: 6 miles , 10 km
2017/10/17 23:56 KVIS 172356Z AUTO 31008KT 6SM HZ CLR 27/08 A3001 RMK AO2 SLP169 T02670078 10289 20222 56010
KPTV - Porterville, California, USA
Distance from station: SSE 19mi, 31km
Updated: Tue, 17-Oct-2017 4:56pm PDT
Clear
Clear
 Wind from NNW
Wind: NNW 5 mph , 7 km/h
Temperature: 84°F , 29°C
Dew Point: 43°F , 6°C
Humidity: 23%
Barometer: 30.02 inHg , 1016.6 hPa
Clouds: Clear
Visibility: 8 miles , 13 km
2017/10/17 23:56 KPTV 172356Z AUTO 34004KT 8SM CLR 29/06 A3002 RMK AO2 SLP173 T02940056 10300 20250 56009

Metar display script from Saratoga-Weather.org



Visitor Map